sensor_id;sensor_type;location;lat;lon;timestamp;P1;durP1;ratioP1;P2;durP2;ratioP2
25810;SDS011;13645;52.460;13.910;2023-07-16T00:00:59;7.78;;;3.72;;
25810;SDS011;13645;52.460;13.910;2023-07-16T00:03:26;6.90;;;3.53;;
25810;SDS011;13645;52.460;13.910;2023-07-16T00:05:53;11.40;;;3.75;;
25810;SDS011;13645;52.460;13.910;2023-07-16T00:08:20;6.38;;;3.65;;
25810;SDS011;13645;52.460;13.910;2023-07-16T00:10:47;9.95;;;3.60;;
25810;SDS011;13645;52.460;13.910;2023-07-16T00:13:14;6.65;;;3.67;;
25810;SDS011;13645;52.460;13.910;2023-07-16T00:15:41;6.47;;;3.88;;
25810;SDS011;13645;52.460;13.910;2023-07-16T00:18:07;12.55;;;4.00;;
25810;SDS011;13645;52.460;13.910;2023-07-16T00:20:34;8.40;;;3.75;;
25810;SDS011;13645;52.460;13.910;2023-07-16T00:23:01;4.80;;;3.28;;
25810;SDS011;13645;52.460;13.910;2023-07-16T00:25:28;6.05;;;3.50;;
25810;SDS011;13645;52.460;13.910;2023-07-16T00:27:55;6.50;;;3.47;;
25810;SDS011;13645;52.460;13.910;2023-07-16T00:30:22;4.68;;;3.45;;
25810;SDS011;13645;52.460;13.910;2023-07-16T00:32:49;5.80;;;3.90;;
25810;SDS011;13645;52.460;13.910;2023-07-16T00:35:15;8.80;;;3.95;;
25810;SDS011;13645;52.460;13.910;2023-07-16T00:37:42;7.03;;;3.50;;
25810;SDS011;13645;52.460;13.910;2023-07-16T00:40:11;7.07;;;3.60;;
25810;SDS011;13645;52.460;13.910;2023-07-16T00:42:38;5.95;;;3.88;;
25810;SDS011;13645;52.460;13.910;2023-07-16T00:45:08;9.85;;;4.10;;
25810;SDS011;13645;52.460;13.910;2023-07-16T00:47:39;7.35;;;3.78;;
25810;SDS011;13645;52.460;13.910;2023-07-16T00:50:07;6.15;;;3.60;;
25810;SDS011;13645;52.460;13.910;2023-07-16T00:52:36;6.25;;;4.03;;
25810;SDS011;13645;52.460;13.910;2023-07-16T00:55:03;6.40;;;3.78;;
25810;SDS011;13645;52.460;13.910;2023-07-16T00:57:31;5.00;;;3.70;;
25810;SDS011;13645;52.460;13.910;2023-07-16T00:59:58;6.25;;;3.78;;
25810;SDS011;13645;52.460;13.910;2023-07-16T01:02:25;5.85;;;4.00;;
25810;SDS011;13645;52.460;13.910;2023-07-16T01:04:52;9.20;;;4.18;;
25810;SDS011;13645;52.460;13.910;2023-07-16T01:07:19;9.18;;;4.22;;
25810;SDS011;13645;52.460;13.910;2023-07-16T01:09:50;6.40;;;3.33;;
25810;SDS011;13645;52.460;13.910;2023-07-16T01:12:17;4.57;;;3.90;;
25810;SDS011;13645;52.460;13.910;2023-07-16T01:14:46;5.20;;;3.60;;
25810;SDS011;13645;52.460;13.910;2023-07-16T01:17:13;4.85;;;3.90;;
25810;SDS011;13645;52.460;13.910;2023-07-16T01:19:39;5.03;;;3.55;;
25810;SDS011;13645;52.460;13.910;2023-07-16T01:28:11;7.03;;;3.70;;
25810;SDS011;13645;52.460;13.910;2023-07-16T01:30:58;5.13;;;3.70;;
25810;SDS011;13645;52.460;13.910;2023-07-16T01:33:25;6.15;;;4.25;;
25810;SDS011;13645;52.460;13.910;2023-07-16T01:35:52;5.75;;;3.80;;
25810;SDS011;13645;52.460;13.910;2023-07-16T01:38:20;8.05;;;4.00;;
25810;SDS011;13645;52.460;13.910;2023-07-16T01:40:49;7.18;;;3.70;;
25810;SDS011;13645;52.460;13.910;2023-07-16T01:43:16;7.60;;;3.72;;
25810;SDS011;13645;52.460;13.910;2023-07-16T01:45:43;5.55;;;3.85;;
25810;SDS011;13645;52.460;13.910;2023-07-16T01:48:16;5.45;;;3.30;;
25810;SDS011;13645;52.460;13.910;2023-07-16T01:50:58;6.18;;;3.80;;
25810;SDS011;13645;52.460;13.910;2023-07-16T01:53:25;7.10;;;3.80;;
25810;SDS011;13645;52.460;13.910;2023-07-16T01:55:54;6.50;;;3.80;;
25810;SDS011;13645;52.460;13.910;2023-07-16T01:58:23;7.38;;;3.50;;
25810;SDS011;13645;52.460;13.910;2023-07-16T02:00:50;5.93;;;4.03;;
25810;SDS011;13645;52.460;13.910;2023-07-16T02:03:17;5.63;;;3.80;;
25810;SDS011;13645;52.460;13.910;2023-07-16T02:05:44;6.85;;;4.13;;
25810;SDS011;13645;52.460;13.910;2023-07-16T02:08:11;7.40;;;4.18;;
25810;SDS011;13645;52.460;13.910;2023-07-16T02:10:38;12.73;;;4.18;;
25810;SDS011;13645;52.460;13.910;2023-07-16T02:13:05;10.90;;;3.97;;
25810;SDS011;13645;52.460;13.910;2023-07-16T02:15:38;7.03;;;4.00;;
25810;SDS011;13645;52.460;13.910;2023-07-16T02:18:08;5.95;;;4.13;;
25810;SDS011;13645;52.460;13.910;2023-07-16T02:20:43;7.47;;;3.75;;
25810;SDS011;13645;52.460;13.910;2023-07-16T02:23:10;5.30;;;3.58;;
25810;SDS011;13645;52.460;13.910;2023-07-16T02:25:37;4.57;;;3.33;;
25810;SDS011;13645;52.460;13.910;2023-07-16T02:28:05;5.05;;;3.33;;
25810;SDS011;13645;52.460;13.910;2023-07-16T02:30:43;7.82;;;3.40;;
25810;SDS011;13645;52.460;13.910;2023-07-16T02:33:16;7.43;;;3.40;;
25810;SDS011;13645;52.460;13.910;2023-07-16T02:35:47;8.05;;;3.45;;
25810;SDS011;13645;52.460;13.910;2023-07-16T02:38:20;6.35;;;3.10;;
25810;SDS011;13645;52.460;13.910;2023-07-16T02:40:47;5.60;;;3.20;;
25810;SDS011;13645;52.460;13.910;2023-07-16T02:43:14;4.93;;;3.05;;
25810;SDS011;13645;52.460;13.910;2023-07-16T02:45:41;6.30;;;3.25;;
25810;SDS011;13645;52.460;13.910;2023-07-16T02:48:18;4.80;;;2.72;;
25810;SDS011;13645;52.460;13.910;2023-07-16T02:50:55;5.78;;;2.92;;
25810;SDS011;13645;52.460;13.910;2023-07-16T02:53:22;5.93;;;3.28;;
25810;SDS011;13645;52.460;13.910;2023-07-16T02:55:51;4.57;;;3.13;;
25810;SDS011;13645;52.460;13.910;2023-07-16T02:58:24;7.15;;;2.50;;
25810;SDS011;13645;52.460;13.910;2023-07-16T03:00:54;4.18;;;2.75;;
25810;SDS011;13645;52.460;13.910;2023-07-16T03:03:23;5.35;;;2.60;;
25810;SDS011;13645;52.460;13.910;2023-07-16T03:06:03;6.10;;;2.15;;
25810;SDS011;13645;52.460;13.910;2023-07-16T03:08:43;6.68;;;2.53;;
25810;SDS011;13645;52.460;13.910;2023-07-16T03:11:24;5.30;;;2.45;;
25810;SDS011;13645;52.460;13.910;2023-07-16T03:14:40;3.83;;;2.63;;
25810;SDS011;13645;52.460;13.910;2023-07-16T03:17:07;2.40;;;2.20;;
25810;SDS011;13645;52.460;13.910;2023-07-16T03:19:34;2.92;;;2.13;;
25810;SDS011;13645;52.460;13.910;2023-07-16T03:22:05;5.15;;;2.15;;
25810;SDS011;13645;52.460;13.910;2023-07-16T03:24:40;2.53;;;1.65;;
25810;SDS011;13645;52.460;13.910;2023-07-16T03:27:07;5.13;;;2.10;;
25810;SDS011;13645;52.460;13.910;2023-07-16T03:36:27;5.07;;;1.85;;
25810;SDS011;13645;52.460;13.910;2023-07-16T05:42:17;5.20;;;3.80;;
25810;SDS011;13645;52.460;13.910;2023-07-16T07:08:32;5.35;;;2.47;;
25810;SDS011;13645;52.460;13.910;2023-07-16T07:33:54;6.47;;;2.50;;
25810;SDS011;13645;52.460;13.910;2023-07-16T07:36:49;3.70;;;2.20;;
25810;SDS011;13645;52.460;13.910;2023-07-16T07:39:43;4.35;;;2.33;;
25810;SDS011;13645;52.460;13.910;2023-07-16T07:42:45;3.83;;;2.13;;
25810;SDS011;13645;52.460;13.910;2023-07-16T07:45:52;4.43;;;2.25;;
25810;SDS011;13645;52.460;13.910;2023-07-16T07:48:48;11.70;;;2.33;;
25810;SDS011;13645;52.460;13.910;2023-07-16T08:00:05;3.78;;;2.40;;
25810;SDS011;13645;52.460;13.910;2023-07-16T08:10:18;6.25;;;2.50;;
25810;SDS011;13645;52.460;13.910;2023-07-16T08:12:50;3.00;;;2.10;;
25810;SDS011;13645;52.460;13.910;2023-07-16T08:15:23;4.22;;;2.40;;
25810;SDS011;13645;52.460;13.910;2023-07-16T08:18:05;5.18;;;2.20;;
25810;SDS011;13645;52.460;13.910;2023-07-16T08:20:54;3.40;;;2.10;;
25810;SDS011;13645;52.460;13.910;2023-07-16T08:23:22;3.47;;;2.20;;
25810;SDS011;13645;52.460;13.910;2023-07-16T08:25:54;5.00;;;2.38;;
25810;SDS011;13645;52.460;13.910;2023-07-16T08:28:42;3.63;;;2.05;;
25810;SDS011;13645;52.460;13.910;2023-07-16T08:31:11;4.10;;;2.10;;
25810;SDS011;13645;52.460;13.910;2023-07-16T08:33:55;3.30;;;2.50;;
25810;SDS011;13645;52.460;13.910;2023-07-16T08:36:23;5.75;;;2.15;;
25810;SDS011;13645;52.460;13.910;2023-07-16T08:38:53;3.45;;;2.00;;
25810;SDS011;13645;52.460;13.910;2023-07-16T08:41:45;3.55;;;2.25;;
25810;SDS011;13645;52.460;13.910;2023-07-16T08:44:18;5.55;;;2.20;;
25810;SDS011;13645;52.460;13.910;2023-07-16T08:46:52;3.55;;;2.03;;
25810;SDS011;13645;52.460;13.910;2023-07-16T08:49:23;3.40;;;2.30;;
25810;SDS011;13645;52.460;13.910;2023-07-16T08:51:54;4.47;;;2.30;;
25810;SDS011;13645;52.460;13.910;2023-07-16T08:57:51;5.88;;;2.35;;
25810;SDS011;13645;52.460;13.910;2023-07-16T09:04:53;2.45;;;1.80;;
25810;SDS011;13645;52.460;13.910;2023-07-16T09:07:24;2.95;;;1.83;;
25810;SDS011;13645;52.460;13.910;2023-07-16T09:09:55;4.03;;;2.05;;
25810;SDS011;13645;52.460;13.910;2023-07-16T09:12:26;3.78;;;2.03;;
25810;SDS011;13645;52.460;13.910;2023-07-16T09:14:53;4.25;;;1.80;;
25810;SDS011;13645;52.460;13.910;2023-07-16T09:17:21;2.72;;;1.75;;
25810;SDS011;13645;52.460;13.910;2023-07-16T09:19:51;3.80;;;1.88;;
25810;SDS011;13645;52.460;13.910;2023-07-16T09:22:20;2.90;;;2.13;;
25810;SDS011;13645;52.460;13.910;2023-07-16T09:25:03;6.05;;;1.60;;
25810;SDS011;13645;52.460;13.910;2023-07-16T09:28:08;2.80;;;1.88;;
25810;SDS011;13645;52.460;13.910;2023-07-16T09:30:35;4.13;;;1.90;;
25810;SDS011;13645;52.460;13.910;2023-07-16T09:33:21;2.88;;;2.10;;
25810;SDS011;13645;52.460;13.910;2023-07-16T09:35:53;8.52;;;1.85;;
25810;SDS011;13645;52.460;13.910;2023-07-16T09:38:20;4.28;;;2.15;;
25810;SDS011;13645;52.460;13.910;2023-07-16T09:44:53;5.78;;;1.88;;
25810;SDS011;13645;52.460;13.910;2023-07-16T09:47:46;3.10;;;1.50;;
25810;SDS011;13645;52.460;13.910;2023-07-16T09:50:13;5.15;;;2.25;;
25810;SDS011;13645;52.460;13.910;2023-07-16T09:52:40;7.65;;;1.92;;
25810;SDS011;13645;52.460;13.910;2023-07-16T09:55:09;5.45;;;2.13;;
25810;SDS011;13645;52.460;13.910;2023-07-16T09:57:41;3.08;;;1.70;;
25810;SDS011;13645;52.460;13.910;2023-07-16T10:00:10;4.63;;;1.63;;
25810;SDS011;13645;52.460;13.910;2023-07-16T10:02:41;4.45;;;2.10;;
25810;SDS011;13645;52.460;13.910;2023-07-16T10:05:18;4.70;;;2.10;;
25810;SDS011;13645;52.460;13.910;2023-07-16T10:07:49;4.15;;;1.80;;
25810;SDS011;13645;52.460;13.910;2023-07-16T10:10:18;3.80;;;1.90;;
25810;SDS011;13645;52.460;13.910;2023-07-16T10:12:58;2.50;;;1.63;;
25810;SDS011;13645;52.460;13.910;2023-07-16T10:15:28;2.67;;;1.50;;
25810;SDS011;13645;52.460;13.910;2023-07-16T10:17:56;4.68;;;1.85;;
25810;SDS011;13645;52.460;13.910;2023-07-16T10:20:30;3.35;;;1.75;;
25810;SDS011;13645;52.460;13.910;2023-07-16T10:23:12;3.78;;;1.77;;
25810;SDS011;13645;52.460;13.910;2023-07-16T10:26:00;3.35;;;1.88;;
25810;SDS011;13645;52.460;13.910;2023-07-16T10:28:32;2.55;;;1.75;;
25810;SDS011;13645;52.460;13.910;2023-07-16T10:31:00;3.35;;;1.70;;
25810;SDS011;13645;52.460;13.910;2023-07-16T10:33:27;6.53;;;1.90;;
25810;SDS011;13645;52.460;13.910;2023-07-16T10:35:56;2.22;;;1.65;;
25810;SDS011;13645;52.460;13.910;2023-07-16T10:38:25;6.35;;;1.80;;
25810;SDS011;13645;52.460;13.910;2023-07-16T10:40:52;2.95;;;1.63;;
25810;SDS011;13645;52.460;13.910;2023-07-16T10:43:19;3.28;;;1.77;;
25810;SDS011;13645;52.460;13.910;2023-07-16T10:45:47;4.22;;;1.63;;
25810;SDS011;13645;52.460;13.910;2023-07-16T10:48:24;3.15;;;1.83;;
25810;SDS011;13645;52.460;13.910;2023-07-16T10:50:53;3.22;;;1.85;;
25810;SDS011;13645;52.460;13.910;2023-07-16T10:53:21;4.90;;;1.92;;
25810;SDS011;13645;52.460;13.910;2023-07-16T10:55:48;3.08;;;1.70;;
25810;SDS011;13645;52.460;13.910;2023-07-16T10:58:15;5.00;;;1.67;;
25810;SDS011;13645;52.460;13.910;2023-07-16T11:00:43;3.25;;;1.95;;
25810;SDS011;13645;52.460;13.910;2023-07-16T11:03:14;3.55;;;1.90;;
25810;SDS011;13645;52.460;13.910;2023-07-16T11:05:45;3.30;;;1.70;;
25810;SDS011;13645;52.460;13.910;2023-07-16T11:08:21;3.53;;;1.92;;
25810;SDS011;13645;52.460;13.910;2023-07-16T11:10:57;4.03;;;2.10;;
25810;SDS011;13645;52.460;13.910;2023-07-16T11:13:28;3.70;;;1.90;;
25810;SDS011;13645;52.460;13.910;2023-07-16T11:16:09;5.40;;;2.13;;
25810;SDS011;13645;52.460;13.910;2023-07-16T11:18:37;5.68;;;2.20;;
25810;SDS011;13645;52.460;13.910;2023-07-16T11:21:04;3.83;;;1.70;;
25810;SDS011;13645;52.460;13.910;2023-07-16T11:23:35;3.03;;;1.83;;
25810;SDS011;13645;52.460;13.910;2023-07-16T11:26:02;4.97;;;1.80;;
25810;SDS011;13645;52.460;13.910;2023-07-16T11:28:39;2.75;;;1.77;;
25810;SDS011;13645;52.460;13.910;2023-07-16T11:31:14;5.32;;;2.30;;
25810;SDS011;13645;52.460;13.910;2023-07-16T11:33:43;5.03;;;1.80;;
25810;SDS011;13645;52.460;13.910;2023-07-16T11:36:13;5.43;;;1.90;;
25810;SDS011;13645;52.460;13.910;2023-07-16T11:38:41;8.05;;;2.20;;
25810;SDS011;13645;52.460;13.910;2023-07-16T11:41:08;4.30;;;2.13;;
25810;SDS011;13645;52.460;13.910;2023-07-16T11:43:35;8.32;;;2.05;;
25810;SDS011;13645;52.460;13.910;2023-07-16T11:46:03;4.68;;;1.83;;
25810;SDS011;13645;52.460;13.910;2023-07-16T11:48:40;3.83;;;1.80;;
25810;SDS011;13645;52.460;13.910;2023-07-16T11:51:08;3.95;;;1.70;;
25810;SDS011;13645;52.460;13.910;2023-07-16T11:53:34;5.53;;;2.10;;
25810;SDS011;13645;52.460;13.910;2023-07-16T11:56:05;5.82;;;2.10;;
25810;SDS011;13645;52.460;13.910;2023-07-16T11:58:35;5.15;;;2.10;;
25810;SDS011;13645;52.460;13.910;2023-07-16T12:01:02;3.65;;;1.80;;
25810;SDS011;13645;52.460;13.910;2023-07-16T12:03:29;7.70;;;2.35;;
25810;SDS011;13645;52.460;13.910;2023-07-16T12:05:56;6.15;;;1.90;;
25810;SDS011;13645;52.460;13.910;2023-07-16T12:08:23;6.35;;;1.63;;
25810;SDS011;13645;52.460;13.910;2023-07-16T12:10:50;4.13;;;2.30;;
25810;SDS011;13645;52.460;13.910;2023-07-16T12:13:17;3.60;;;1.80;;
25810;SDS011;13645;52.460;13.910;2023-07-16T12:16:02;3.63;;;2.05;;
25810;SDS011;13645;52.460;13.910;2023-07-16T12:18:29;4.53;;;1.90;;
25810;SDS011;13645;52.460;13.910;2023-07-16T12:20:57;5.07;;;1.88;;
25810;SDS011;13645;52.460;13.910;2023-07-16T12:23:24;5.80;;;2.20;;
25810;SDS011;13645;52.460;13.910;2023-07-16T12:25:50;4.18;;;2.13;;
25810;SDS011;13645;52.460;13.910;2023-07-16T12:28:17;3.83;;;2.05;;
25810;SDS011;13645;52.460;13.910;2023-07-16T12:30:56;6.00;;;1.70;;
25810;SDS011;13645;52.460;13.910;2023-07-16T12:33:49;6.63;;;1.88;;
25810;SDS011;13645;52.460;13.910;2023-07-16T12:36:19;3.58;;;1.80;;
25810;SDS011;13645;52.460;13.910;2023-07-16T12:38:46;7.20;;;2.10;;
25810;SDS011;13645;52.460;13.910;2023-07-16T12:41:16;10.73;;;2.30;;
25810;SDS011;13645;52.460;13.910;2023-07-16T12:43:46;6.40;;;1.90;;
25810;SDS011;13645;52.460;13.910;2023-07-16T12:46:13;5.32;;;2.10;;
25810;SDS011;13645;52.460;13.910;2023-07-16T12:48:40;4.90;;;2.10;;
25810;SDS011;13645;52.460;13.910;2023-07-16T12:51:08;3.83;;;1.70;;
25810;SDS011;13645;52.460;13.910;2023-07-16T12:53:35;5.90;;;2.00;;
25810;SDS011;13645;52.460;13.910;2023-07-16T12:56:02;5.22;;;2.10;;
25810;SDS011;13645;52.460;13.910;2023-07-16T12:58:49;3.75;;;1.75;;
25810;SDS011;13645;52.460;13.910;2023-07-16T13:01:16;5.18;;;1.90;;
25810;SDS011;13645;52.460;13.910;2023-07-16T13:03:42;4.53;;;2.10;;
25810;SDS011;13645;52.460;13.910;2023-07-16T13:06:09;5.28;;;2.22;;
25810;SDS011;13645;52.460;13.910;2023-07-16T13:08:36;5.47;;;1.88;;
25810;SDS011;13645;52.460;13.910;2023-07-16T13:11:05;4.05;;;1.95;;
25810;SDS011;13645;52.460;13.910;2023-07-16T13:13:32;4.47;;;1.70;;
25810;SDS011;13645;52.460;13.910;2023-07-16T13:15:59;4.05;;;1.92;;
25810;SDS011;13645;52.460;13.910;2023-07-16T13:18:28;10.18;;;2.20;;
25810;SDS011;13645;52.460;13.910;2023-07-16T13:21:00;5.18;;;2.10;;
25810;SDS011;13645;52.460;13.910;2023-07-16T13:24:02;3.88;;;2.10;;
25810;SDS011;13645;52.460;13.910;2023-07-16T13:26:29;3.20;;;1.85;;
25810;SDS011;13645;52.460;13.910;2023-07-16T13:28:59;3.85;;;1.95;;
25810;SDS011;13645;52.460;13.910;2023-07-16T13:31:30;6.13;;;1.67;;
25810;SDS011;13645;52.460;13.910;2023-07-16T13:34:06;6.50;;;1.70;;
25810;SDS011;13645;52.460;13.910;2023-07-16T13:36:37;6.10;;;2.10;;
25810;SDS011;13645;52.460;13.910;2023-07-16T13:39:04;4.15;;;2.00;;
25810;SDS011;13645;52.460;13.910;2023-07-16T13:41:32;10.98;;;2.35;;
25810;SDS011;13645;52.460;13.910;2023-07-16T13:44:44;4.65;;;1.60;;
25810;SDS011;13645;52.460;13.910;2023-07-16T13:47:11;3.67;;;1.77;;
25810;SDS011;13645;52.460;13.910;2023-07-16T13:49:38;4.65;;;2.17;;
25810;SDS011;13645;52.460;13.910;2023-07-16T13:52:05;6.43;;;1.83;;
25810;SDS011;13645;52.460;13.910;2023-07-16T13:54:35;4.38;;;1.83;;
25810;SDS011;13645;52.460;13.910;2023-07-16T13:57:40;7.10;;;1.85;;
25810;SDS011;13645;52.460;13.910;2023-07-16T14:00:08;8.30;;;1.80;;
25810;SDS011;13645;52.460;13.910;2023-07-16T14:02:38;4.78;;;1.73;;
25810;SDS011;13645;52.460;13.910;2023-07-16T14:05:24;2.75;;;1.80;;
25810;SDS011;13645;52.460;13.910;2023-07-16T14:07:51;5.38;;;1.70;;
25810;SDS011;13645;52.460;13.910;2023-07-16T14:10:20;3.67;;;1.75;;
25810;SDS011;13645;52.460;13.910;2023-07-16T14:12:46;4.28;;;1.98;;
25810;SDS011;13645;52.460;13.910;2023-07-16T14:15:13;2.17;;;1.50;;
25810;SDS011;13645;52.460;13.910;2023-07-16T14:17:43;4.13;;;1.92;;
25810;SDS011;13645;52.460;13.910;2023-07-16T14:20:10;5.95;;;2.00;;
25810;SDS011;13645;52.460;13.910;2023-07-16T14:22:37;6.20;;;2.05;;
25810;SDS011;13645;52.460;13.910;2023-07-16T14:25:04;10.57;;;2.03;;
25810;SDS011;13645;52.460;13.910;2023-07-16T14:27:31;3.90;;;1.55;;
25810;SDS011;13645;52.460;13.910;2023-07-16T14:29:59;4.50;;;1.58;;
25810;SDS011;13645;52.460;13.910;2023-07-16T14:32:32;7.55;;;1.80;;
25810;SDS011;13645;52.460;13.910;2023-07-16T14:35:00;5.05;;;2.08;;
25810;SDS011;13645;52.460;13.910;2023-07-16T14:37:27;6.88;;;2.00;;
25810;SDS011;13645;52.460;13.910;2023-07-16T14:39:54;5.10;;;1.98;;
25810;SDS011;13645;52.460;13.910;2023-07-16T14:42:21;5.53;;;1.60;;
25810;SDS011;13645;52.460;13.910;2023-07-16T14:44:48;5.43;;;1.70;;
25810;SDS011;13645;52.460;13.910;2023-07-16T14:47:20;5.03;;;1.85;;
25810;SDS011;13645;52.460;13.910;2023-07-16T14:49:47;4.28;;;1.98;;
25810;SDS011;13645;52.460;13.910;2023-07-16T14:52:13;5.47;;;2.00;;
25810;SDS011;13645;52.460;13.910;2023-07-16T14:54:40;3.90;;;1.67;;
25810;SDS011;13645;52.460;13.910;2023-07-16T14:57:07;5.55;;;1.65;;
25810;SDS011;13645;52.460;13.910;2023-07-16T14:59:34;4.50;;;1.77;;
25810;SDS011;13645;52.460;13.910;2023-07-16T15:02:07;8.32;;;1.80;;
25810;SDS011;13645;52.460;13.910;2023-07-16T15:04:34;4.15;;;1.60;;
25810;SDS011;13645;52.460;13.910;2023-07-16T15:07:01;2.97;;;1.52;;
25810;SDS011;13645;52.460;13.910;2023-07-16T15:09:29;6.80;;;1.90;;
25810;SDS011;13645;52.460;13.910;2023-07-16T15:11:55;4.88;;;1.77;;
25810;SDS011;13645;52.460;13.910;2023-07-16T15:14:23;7.07;;;1.65;;
25810;SDS011;13645;52.460;13.910;2023-07-16T15:16:51;5.18;;;1.90;;
25810;SDS011;13645;52.460;13.910;2023-07-16T15:19:17;5.10;;;1.77;;
25810;SDS011;13645;52.460;13.910;2023-07-16T15:21:46;5.50;;;1.90;;
25810;SDS011;13645;52.460;13.910;2023-07-16T15:24:13;5.03;;;1.80;;
25810;SDS011;13645;52.460;13.910;2023-07-16T15:27:17;7.68;;;2.38;;
25810;SDS011;13645;52.460;13.910;2023-07-16T15:29:46;5.38;;;1.75;;
25810;SDS011;13645;52.460;13.910;2023-07-16T15:32:17;3.67;;;1.83;;
25810;SDS011;13645;52.460;13.910;2023-07-16T15:34:48;4.45;;;1.58;;
25810;SDS011;13645;52.460;13.910;2023-07-16T15:37:15;2.88;;;1.55;;
25810;SDS011;13645;52.460;13.910;2023-07-16T15:39:42;4.20;;;1.80;;
25810;SDS011;13645;52.460;13.910;2023-07-16T15:42:09;3.75;;;1.80;;
25810;SDS011;13645;52.460;13.910;2023-07-16T15:44:36;4.75;;;1.90;;
25810;SDS011;13645;52.460;13.910;2023-07-16T15:47:03;3.15;;;1.80;;
25810;SDS011;13645;52.460;13.910;2023-07-16T15:49:30;4.93;;;1.75;;
25810;SDS011;13645;52.460;13.910;2023-07-16T15:51:59;5.82;;;1.92;;
25810;SDS011;13645;52.460;13.910;2023-07-16T15:54:26;3.75;;;1.50;;
25810;SDS011;13645;52.460;13.910;2023-07-16T15:56:52;4.20;;;1.80;;
25810;SDS011;13645;52.460;13.910;2023-07-16T15:59:20;4.63;;;1.80;;
25810;SDS011;13645;52.460;13.910;2023-07-16T16:01:47;4.10;;;1.95;;
25810;SDS011;13645;52.460;13.910;2023-07-16T16:04:14;3.05;;;1.80;;
25810;SDS011;13645;52.460;13.910;2023-07-16T16:06:41;3.55;;;1.50;;
25810;SDS011;13645;52.460;13.910;2023-07-16T16:09:08;7.55;;;2.00;;
25810;SDS011;13645;52.460;13.910;2023-07-16T16:11:35;3.72;;;1.77;;
25810;SDS011;13645;52.460;13.910;2023-07-16T16:14:02;8.25;;;1.73;;
25810;SDS011;13645;52.460;13.910;2023-07-16T16:19:02;4.07;;;1.83;;
25810;SDS011;13645;52.460;13.910;2023-07-16T16:21:29;2.20;;;1.40;;
25810;SDS011;13645;52.460;13.910;2023-07-16T16:23:56;5.18;;;1.75;;
25810;SDS011;13645;52.460;13.910;2023-07-16T16:26:24;3.70;;;1.70;;
25810;SDS011;13645;52.460;13.910;2023-07-16T16:28:52;9.20;;;2.03;;
25810;SDS011;13645;52.460;13.910;2023-07-16T16:31:19;4.38;;;1.90;;
25810;SDS011;13645;52.460;13.910;2023-07-16T16:33:46;6.45;;;1.60;;
25810;SDS011;13645;52.460;13.910;2023-07-16T16:36:13;7.30;;;2.38;;
25810;SDS011;13645;52.460;13.910;2023-07-16T16:38:41;4.93;;;1.80;;
25810;SDS011;13645;52.460;13.910;2023-07-16T16:41:13;7.05;;;2.00;;
25810;SDS011;13645;52.460;13.910;2023-07-16T16:43:40;4.40;;;1.90;;
25810;SDS011;13645;52.460;13.910;2023-07-16T16:46:08;3.15;;;1.90;;
25810;SDS011;13645;52.460;13.910;2023-07-16T16:48:36;2.75;;;1.77;;
25810;SDS011;13645;52.460;13.910;2023-07-16T16:51:04;5.20;;;2.10;;
25810;SDS011;13645;52.460;13.910;2023-07-16T16:53:31;4.60;;;2.10;;
25810;SDS011;13645;52.460;13.910;2023-07-16T16:55:58;4.65;;;1.90;;
25810;SDS011;13645;52.460;13.910;2023-07-16T16:58:24;4.85;;;1.90;;
25810;SDS011;13645;52.460;13.910;2023-07-16T17:00:52;5.10;;;1.60;;
25810;SDS011;13645;52.460;13.910;2023-07-16T17:03:22;8.13;;;1.95;;
25810;SDS011;13645;52.460;13.910;2023-07-16T17:05:49;4.32;;;2.00;;
25810;SDS011;13645;52.460;13.910;2023-07-16T17:08:19;3.25;;;2.00;;
25810;SDS011;13645;52.460;13.910;2023-07-16T17:10:46;3.97;;;1.80;;
25810;SDS011;13645;52.460;13.910;2023-07-16T17:13:13;4.85;;;1.95;;
25810;SDS011;13645;52.460;13.910;2023-07-16T17:15:43;12.57;;;2.28;;
25810;SDS011;13645;52.460;13.910;2023-07-16T17:18:13;5.22;;;2.00;;
25810;SDS011;13645;52.460;13.910;2023-07-16T17:20:40;2.75;;;1.92;;
25810;SDS011;13645;52.460;13.910;2023-07-16T17:23:09;5.43;;;2.05;;
25810;SDS011;13645;52.460;13.910;2023-07-16T17:25:37;7.75;;;1.90;;
25810;SDS011;13645;52.460;13.910;2023-07-16T17:28:04;5.82;;;1.83;;
25810;SDS011;13645;52.460;13.910;2023-07-16T17:30:31;7.65;;;2.03;;
25810;SDS011;13645;52.460;13.910;2023-07-16T17:32:58;4.32;;;1.80;;
25810;SDS011;13645;52.460;13.910;2023-07-16T17:35:25;3.05;;;1.88;;
25810;SDS011;13645;52.460;13.910;2023-07-16T17:37:53;8.43;;;1.90;;
25810;SDS011;13645;52.460;13.910;2023-07-16T17:40:23;9.05;;;2.22;;
25810;SDS011;13645;52.460;13.910;2023-07-16T17:42:52;11.88;;;2.35;;
25810;SDS011;13645;52.460;13.910;2023-07-16T17:45:19;8.63;;;2.20;;
25810;SDS011;13645;52.460;13.910;2023-07-16T17:47:46;7.57;;;2.30;;
25810;SDS011;13645;52.460;13.910;2023-07-16T17:50:13;6.07;;;2.15;;
25810;SDS011;13645;52.460;13.910;2023-07-16T17:52:40;6.28;;;1.80;;
25810;SDS011;13645;52.460;13.910;2023-07-16T17:55:07;4.38;;;1.90;;
25810;SDS011;13645;52.460;13.910;2023-07-16T17:57:36;3.95;;;1.80;;
25810;SDS011;13645;52.460;13.910;2023-07-16T18:00:02;5.57;;;1.95;;
25810;SDS011;13645;52.460;13.910;2023-07-16T18:02:50;7.00;;;2.10;;
25810;SDS011;13645;52.460;13.910;2023-07-16T18:05:17;3.05;;;2.10;;
25810;SDS011;13645;52.460;13.910;2023-07-16T18:07:44;7.60;;;1.90;;
25810;SDS011;13645;52.460;13.910;2023-07-16T18:10:11;5.00;;;2.17;;
25810;SDS011;13645;52.460;13.910;2023-07-16T18:12:38;4.00;;;2.03;;
25810;SDS011;13645;52.460;13.910;2023-07-16T18:15:05;3.85;;;1.98;;
25810;SDS011;13645;52.460;13.910;2023-07-16T18:17:32;5.93;;;2.05;;
25810;SDS011;13645;52.460;13.910;2023-07-16T18:19:59;4.57;;;2.20;;
25810;SDS011;13645;52.460;13.910;2023-07-16T18:22:27;4.60;;;2.00;;
25810;SDS011;13645;52.460;13.910;2023-07-16T18:24:57;2.95;;;1.90;;
25810;SDS011;13645;52.460;13.910;2023-07-16T18:27:25;4.70;;;1.90;;
25810;SDS011;13645;52.460;13.910;2023-07-16T18:29:52;5.78;;;2.05;;
25810;SDS011;13645;52.460;13.910;2023-07-16T18:32:19;6.85;;;2.30;;
25810;SDS011;13645;52.460;13.910;2023-07-16T18:34:46;5.93;;;1.80;;
25810;SDS011;13645;52.460;13.910;2023-07-16T18:37:17;4.10;;;2.00;;
25810;SDS011;13645;52.460;13.910;2023-07-16T18:39:46;6.72;;;2.10;;
25810;SDS011;13645;52.460;13.910;2023-07-16T18:42:14;4.53;;;2.05;;
25810;SDS011;13645;52.460;13.910;2023-07-16T18:44:45;6.78;;;2.22;;
25810;SDS011;13645;52.460;13.910;2023-07-16T18:47:16;3.90;;;1.90;;
25810;SDS011;13645;52.460;13.910;2023-07-16T18:49:43;9.88;;;1.85;;
25810;SDS011;13645;52.460;13.910;2023-07-16T18:52:10;4.05;;;1.80;;
25810;SDS011;13645;52.460;13.910;2023-07-16T18:54:36;2.92;;;1.90;;
25810;SDS011;13645;52.460;13.910;2023-07-16T18:57:08;4.15;;;2.53;;
25810;SDS011;13645;52.460;13.910;2023-07-16T18:59:35;3.92;;;2.00;;
25810;SDS011;13645;52.460;13.910;2023-07-16T19:02:02;4.75;;;2.25;;
25810;SDS011;13645;52.460;13.910;2023-07-16T19:04:29;8.38;;;2.33;;
25810;SDS011;13645;52.460;13.910;2023-07-16T19:06:56;6.43;;;2.20;;
25810;SDS011;13645;52.460;13.910;2023-07-16T19:09:23;5.57;;;2.13;;
25810;SDS011;13645;52.460;13.910;2023-07-16T19:11:50;3.85;;;1.90;;
25810;SDS011;13645;52.460;13.910;2023-07-16T19:14:17;5.28;;;2.15;;
25810;SDS011;13645;52.460;13.910;2023-07-16T19:16:44;4.97;;;2.20;;
25810;SDS011;13645;52.460;13.910;2023-07-16T19:19:11;5.78;;;2.55;;
25810;SDS011;13645;52.460;13.910;2023-07-16T19:21:37;6.47;;;2.03;;
25810;SDS011;13645;52.460;13.910;2023-07-16T19:24:04;6.25;;;2.60;;
25810;SDS011;13645;52.460;13.910;2023-07-16T19:26:31;9.43;;;2.50;;